Time;durP1;ratioP1;P1;durP2;ratioP2;P2;SDS_P1;SDS_P2;PMS_P1;PMS_P2;Temp;Humidity;BMP_temperature;BMP_pressure;BME280_temperature;BME280_humidity;BME280_pressure;Samples;Min_cycle;Max_cycle;Signal;HPM_P1;HPM_P2
2022/05/23 00:01:21;;;;;;;4.73;4.00;;;;;;;;;;5055689;28;24414;-46
2022/05/23 00:03:46;;;;;;;4.10;3.80;;;;;;;;;;5053832;28;24423;-45
2022/05/23 00:06:13;;;;;;;4.00;3.70;;;;;;;;;;5056988;28;24454;-45
2022/05/23 00:08:38;;;;;;;3.72;3.50;;;;;;;;;;5062856;28;24418;-45
2022/05/23 00:11:03;;;;;;;4.13;3.72;;;;;;;;;;5061488;28;24500;-45
2022/05/23 00:13:28;;;;;;;3.80;3.40;;;;;;;;;;5061020;28;24423;-45
2022/05/23 00:15:54;;;;;;;4.25;3.88;;;;;;;;;;5060089;28;24434;-45
2022/05/23 00:18:19;;;;;;;3.80;3.50;;;;;;;;;;5070469;28;24504;-45
2022/05/23 00:20:44;;;;;;;4.13;3.80;;;;;;;;;;5063081;28;24431;-45
2022/05/23 00:23:09;;;;;;;3.57;3.27;;;;;;;;;;5060239;28;24513;-45
2022/05/23 00:25:34;;;;;;;3.43;3.23;;;;;;;;;;5058824;28;24418;-45
2022/05/23 00:28:00;;;;;;;3.50;3.20;;;;;;;;;;5061113;28;24514;-46
2022/05/23 00:30:26;;;;;;;3.60;3.33;;;;;;;;;;5058562;28;25018;-45
2022/05/23 00:35:35;;;;;;;4.30;3.90;;;;;;;;;;5059733;28;24417;-45
2022/05/23 00:38:00;;;;;;;3.70;3.40;;;;;;;;;;5065073;28;24526;-46
2022/05/23 00:40:42;;;;;;;3.87;3.53;;;;;;;;;;5065663;28;24514;-45
2022/05/23 00:43:15;;;;;;;3.70;3.40;;;;;;;;;;5065252;28;24430;-45
2022/05/23 00:45:46;;;;;;;3.67;3.38;;;;;;;;;;5061434;28;24526;-46
2022/05/23 00:48:11;;;;;;;3.78;3.35;;;;;;;;;;5070891;28;24434;-45
2022/05/23 00:50:39;;;;;;;3.67;3.38;;;;;;;;;;5059285;28;24419;-45
2022/05/23 00:53:05;;;;;;;4.05;3.75;;;;;;;;;;5067082;28;24433;-45
2022/05/23 00:55:33;;;;;;;3.65;3.40;;;;;;;;;;5056419;28;24455;-45
2022/05/23 00:58:03;;;;;;;4.80;3.60;;;;;;;;;;5058542;28;24466;-45
2022/05/23 01:00:28;;;;;;;4.68;3.90;;;;;;;;;;5066376;28;24402;-45
2022/05/23 01:02:55;;;;;;;4.97;3.60;;;;;;;;;;5065556;28;24468;-45
2022/05/23 01:05:20;;;;;;;4.78;4.38;;;;;;;;;;5062830;28;24426;-46
2022/05/23 01:07:45;;;;;;;4.37;3.97;;;;;;;;;;5063501;28;24530;-45
2022/05/23 01:10:10;;;;;;;4.25;3.85;;;;;;;;;;5063135;28;24421;-46
2022/05/23 01:12:36;;;;;;;4.30;3.90;;;;;;;;;;5065169;28;24427;-46
2022/05/23 01:15:03;;;;;;;4.57;4.18;;;;;;;;;;5064176;28;24437;-45
2022/05/23 01:17:29;;;;;;;4.57;4.00;;;;;;;;;;5060614;28;24429;-45
2022/05/23 01:19:54;;;;;;;4.07;3.67;;;;;;;;;;5067778;28;24429;-45
2022/05/23 01:22:37;;;;;;;4.30;3.97;;;;;;;;;;5062825;28;24476;-45
2022/05/23 01:25:08;;;;;;;4.33;3.93;;;;;;;;;;5059705;28;24407;-46
2022/05/23 01:27:34;;;;;;;4.68;4.18;;;;;;;;;;5062745;28;24495;-46
2022/05/23 01:29:59;;;;;;;4.63;4.23;;;;;;;;;;5060128;28;25229;-45
2022/05/23 01:32:24;;;;;;;4.43;4.03;;;;;;;;;;5057516;28;24496;-46
2022/05/23 01:34:49;;;;;;;4.33;4.03;;;;;;;;;;5078993;28;24426;-45
2022/05/23 01:37:15;;;;;;;4.17;3.87;;;;;;;;;;5060007;28;24437;-46
2022/05/23 01:39:40;;;;;;;4.20;3.90;;;;;;;;;;5059504;28;24415;-45
2022/05/23 01:42:06;;;;;;;3.72;3.42;;;;;;;;;;5067433;28;24426;-46
2022/05/23 01:44:32;;;;;;;4.40;4.00;;;;;;;;;;5071763;28;24493;-46
2022/05/23 01:46:57;;;;;;;4.13;3.80;;;;;;;;;;5057375;28;25079;-46
2022/05/23 01:49:22;;;;;;;4.95;3.90;;;;;;;;;;5064627;28;25107;-46
2022/05/23 01:51:47;;;;;;;3.80;3.40;;;;;;;;;;5056565;28;25043;-46
2022/05/23 01:54:13;;;;;;;4.90;3.70;;;;;;;;;;5079757;28;24480;-46
2022/05/23 01:56:38;;;;;;;4.10;3.80;;;;;;;;;;5066637;28;24476;-45
2022/05/23 02:01:47;;;;;;;4.00;3.70;;;;;;;;;;5069428;28;24820;-47
2022/05/23 02:04:12;;;;;;;4.18;3.72;;;;;;;;;;5071597;28;24426;-45
2022/05/23 02:06:37;;;;;;;4.40;4.00;;;;;;;;;;5051470;28;24489;-45
2022/05/23 02:09:04;;;;;;;4.50;3.97;;;;;;;;;;5064543;28;24483;-45
2022/05/23 02:11:29;;;;;;;4.20;3.90;;;;;;;;;;5063942;28;24435;-45
2022/05/23 02:13:54;;;;;;;4.20;3.90;;;;;;;;;;5061084;28;24496;-45
2022/05/23 02:16:20;;;;;;;4.60;4.20;;;;;;;;;;5058886;28;24426;-45
2022/05/23 02:18:45;;;;;;;5.28;4.20;;;;;;;;;;5068661;28;24433;-45
2022/05/23 02:21:11;;;;;;;4.15;3.85;;;;;;;;;;5056969;28;24424;-45
2022/05/23 02:23:36;;;;;;;4.50;4.10;;;;;;;;;;5066622;28;24518;-45
2022/05/23 02:26:02;;;;;;;4.00;3.70;;;;;;;;;;5060505;28;24414;-45
2022/05/23 02:28:27;;;;;;;5.03;4.43;;;;;;;;;;5072324;28;24491;-45
2022/05/23 02:30:52;;;;;;;4.30;3.80;;;;;;;;;;5064404;28;24483;-45
2022/05/23 02:33:17;;;;;;;4.00;3.70;;;;;;;;;;5060909;28;24496;-45
2022/05/23 02:35:42;;;;;;;4.55;4.15;;;;;;;;;;5077842;28;24960;-46
2022/05/23 02:38:07;;;;;;;4.30;4.00;;;;;;;;;;5075542;28;24419;-45
2022/05/23 02:40:33;;;;;;;5.00;4.50;;;;;;;;;;5071449;28;24472;-45
2022/05/23 02:42:58;;;;;;;4.03;3.70;;;;;;;;;;5063591;28;24526;-46
2022/05/23 02:45:23;;;;;;;4.07;3.77;;;;;;;;;;5074895;28;24497;-45
2022/05/23 02:47:49;;;;;;;5.33;4.20;;;;;;;;;;5057754;28;24983;-45
2022/05/23 02:50:14;;;;;;;5.00;4.30;;;;;;;;;;5067136;28;25027;-45
2022/05/23 02:52:40;;;;;;;4.50;4.10;;;;;;;;;;5067866;28;24422;-45
2022/05/23 02:55:06;;;;;;;5.40;4.20;;;;;;;;;;5067534;28;24426;-45
2022/05/23 02:57:31;;;;;;;4.60;3.92;;;;;;;;;;5060233;28;24558;-45
2022/05/23 02:59:56;;;;;;;4.25;3.90;;;;;;;;;;5063046;28;24414;-45
2022/05/23 03:05:05;;;;;;;4.78;4.10;;;;;;;;;;5055029;28;24399;-45
2022/05/23 03:07:30;;;;;;;4.22;3.70;;;;;;;;;;5066401;28;24422;-45
2022/05/23 03:09:56;;;;;;;4.10;3.70;;;;;;;;;;5057238;28;24975;-45
2022/05/23 03:12:21;;;;;;;4.22;3.83;;;;;;;;;;5053986;28;24430;-44
2022/05/23 03:14:46;;;;;;;4.00;3.70;;;;;;;;;;5056814;28;24446;-45
2022/05/23 03:17:11;;;;;;;3.95;3.55;;;;;;;;;;5060362;28;24511;-44
2022/05/23 03:19:37;;;;;;;4.10;3.80;;;;;;;;;;5058200;28;24480;-45
2022/05/23 03:27:31;;;;;;;4.20;3.40;;;;;;;;;;5057326;28;24398;-46
2022/05/23 03:29:56;;;;;;;3.60;3.30;;;;;;;;;;5050606;28;24462;-45
2022/05/23 03:32:23;;;;;;;4.00;3.70;;;;;;;;;;5059247;28;24411;-45
2022/05/23 03:34:48;;;;;;;4.10;3.70;;;;;;;;;;5059607;28;24426;-45
2022/05/23 03:37:13;;;;;;;3.70;3.40;;;;;;;;;;5056219;28;24774;-45
2022/05/23 03:39:38;;;;;;;5.90;4.30;;;;;;;;;;5058095;28;24556;-45
2022/05/23 03:42:04;;;;;;;4.30;3.90;;;;;;;;;;5062086;28;24791;-45
2022/05/23 03:44:29;;;;;;;4.50;3.50;;;;;;;;;;5058715;28;24528;-45
2022/05/23 03:46:54;;;;;;;6.00;3.90;;;;;;;;;;5063438;28;24430;-45
2022/05/23 03:49:19;;;;;;;4.43;3.60;;;;;;;;;;5057685;28;24774;-45
2022/05/23 03:51:44;;;;;;;3.90;3.60;;;;;;;;;;5064680;28;24569;-45
2022/05/23 03:54:10;;;;;;;4.90;3.80;;;;;;;;;;5057291;28;24422;-46
2022/05/23 03:56:35;;;;;;;3.30;3.10;;;;;;;;;;5063671;28;24492;-45
2022/05/23 03:59:00;;;;;;;3.10;2.90;;;;;;;;;;5047728;28;24427;-45
2022/05/23 04:01:26;;;;;;;4.60;3.38;;;;;;;;;;5055140;28;24454;-45
2022/05/23 04:03:52;;;;;;;3.40;3.05;;;;;;;;;;5063333;28;24488;-45
2022/05/23 04:06:17;;;;;;;3.50;3.20;;;;;;;;;;5059836;28;24993;-45
2022/05/23 04:08:42;;;;;;;3.50;3.20;;;;;;;;;;5050847;28;24426;-45
2022/05/23 04:11:07;;;;;;;3.30;3.10;;;;;;;;;;5059163;28;24953;-45
2022/05/23 04:13:33;;;;;;;3.55;3.13;;;;;;;;;;5068090;28;24419;-45
2022/05/23 04:15:58;;;;;;;4.28;3.50;;;;;;;;;;5069945;28;24423;-46
2022/05/23 04:18:23;;;;;;;4.40;4.00;;;;;;;;;;5069228;28;24466;-46
2022/05/23 04:20:48;;;;;;;3.70;3.40;;;;;;;;;;5075819;28;24519;-46
2022/05/23 04:23:14;;;;;;;3.20;2.90;;;;;;;;;;5058983;28;24419;-46
2022/05/23 04:25:40;;;;;;;3.30;3.10;;;;;;;;;;5060015;28;24953;-45
2022/05/23 04:28:05;;;;;;;4.18;3.20;;;;;;;;;;5058437;28;24455;-45
2022/05/23 04:30:30;;;;;;;3.67;3.00;;;;;;;;;;5063492;28;24435;-45
2022/05/23 04:35:39;;;;;;;3.65;3.15;;;;;;;;;;5042323;28;25405;-45
2022/05/23 04:38:04;;;;;;;5.15;3.60;;;;;;;;;;5050512;28;24534;-46
2022/05/23 04:40:29;;;;;;;4.17;3.27;;;;;;;;;;5053783;28;24426;-45
2022/05/23 04:42:55;;;;;;;4.17;3.30;;;;;;;;;;5045205;28;24968;-45
2022/05/23 04:45:20;;;;;;;4.05;3.10;;;;;;;;;;5043224;28;24422;-45
2022/05/23 04:50:30;;;;;;;3.72;3.20;;;;;;;;;;5053988;28;24452;-45
2022/05/23 04:52:57;;;;;;;3.60;3.30;;;;;;;;;;5073603;28;24443;-46
2022/05/23 04:55:22;;;;;;;5.27;3.10;;;;;;;;;;5045021;28;24541;-46
2022/05/23 04:57:48;;;;;;;3.30;3.00;;;;;;;;;;5068955;28;24430;-45
2022/05/23 05:00:18;;;;;;;3.47;2.80;;;;;;;;;;5068461;28;24481;-47
2022/05/23 05:02:43;;;;;;;3.30;2.63;;;;;;;;;;5070043;28;24446;-45
2022/05/23 05:05:08;;;;;;;3.38;2.80;;;;;;;;;;5055569;28;25030;-45
2022/05/23 05:07:33;;;;;;;3.33;2.70;;;;;;;;;;5049920;28;24539;-46
2022/05/23 05:09:58;;;;;;;2.88;2.67;;;;;;;;;;5081192;28;24421;-45
2022/05/23 05:12:24;;;;;;;2.70;2.47;;;;;;;;;;5073593;28;24438;-45
2022/05/23 05:14:49;;;;;;;3.40;2.50;;;;;;;;;;5053791;28;24546;-45
2022/05/23 05:17:14;;;;;;;3.05;2.65;;;;;;;;;;5051847;28;24459;-45
2022/05/23 05:19:39;;;;;;;2.80;2.50;;;;;;;;;;5052389;28;24410;-45
2022/05/23 05:22:04;;;;;;;3.10;2.40;;;;;;;;;;5062253;28;24466;-45
2022/05/23 05:24:32;;;;;;;2.10;2.00;;;;;;;;;;5045725;28;24422;-46
2022/05/23 05:26:57;;;;;;;2.33;1.90;;;;;;;;;;5069745;28;24410;-45
2022/05/23 05:29:23;;;;;;;2.30;2.10;;;;;;;;;;5086940;28;24393;-45
2022/05/23 05:31:52;;;;;;;2.38;2.17;;;;;;;;;;5086399;28;24413;-45
2022/05/23 05:34:22;;;;;;;4.30;2.00;;;;;;;;;;5086151;28;24450;-45
2022/05/23 05:36:49;;;;;;;3.08;1.80;;;;;;;;;;5081912;28;24517;-47
2022/05/23 05:39:16;;;;;;;2.10;1.70;;;;;;;;;;5089601;28;24806;-45
2022/05/23 05:41:45;;;;;;;2.25;1.98;;;;;;;;;;5078822;28;24960;-45
2022/05/23 05:44:13;;;;;;;1.90;1.67;;;;;;;;;;5062823;28;24475;-45
2022/05/23 05:46:41;;;;;;;2.42;2.00;;;;;;;;;;5063407;28;24407;-45
2022/05/23 05:49:09;;;;;;;3.30;2.00;;;;;;;;;;5069874;28;24426;-45
2022/05/23 05:51:37;;;;;;;2.00;1.90;;;;;;;;;;5050790;28;24573;-44
2022/05/23 05:54:03;;;;;;;1.98;1.75;;;;;;;;;;5062600;28;24830;-45
2022/05/23 05:56:28;;;;;;;3.55;1.95;;;;;;;;;;5061406;28;24422;-45
2022/05/23 05:58:53;;;;;;;2.22;2.03;;;;;;;;;;5049153;28;24989;-45
2022/05/23 06:01:19;;;;;;;2.08;1.60;;;;;;;;;;5068619;28;24522;-45
2022/05/23 06:03:44;;;;;;;2.15;2.00;;;;;;;;;;5068209;28;24430;-45
2022/05/23 06:11:37;;;;;;;2.10;2.00;;;;;;;;;;5058295;28;24434;-45
2022/05/23 06:14:03;;;;;;;2.00;1.80;;;;;;;;;;5062342;28;25244;-45
2022/05/23 06:16:30;;;;;;;2.10;1.90;;;;;;;;;;5069569;28;24955;-45
2022/05/23 06:18:55;;;;;;;2.50;1.80;;;;;;;;;;5050798;28;24442;-45
2022/05/23 06:21:21;;;;;;;2.13;2.00;;;;;;;;;;5056806;28;24464;-45
2022/05/23 06:23:46;;;;;;;2.50;1.90;;;;;;;;;;5056532;28;24426;-45
2022/05/23 06:26:12;;;;;;;1.83;1.73;;;;;;;;;;5063325;28;24963;-45
2022/05/23 06:28:37;;;;;;;2.13;1.92;;;;;;;;;;5068977;28;24445;-45
2022/05/23 06:31:02;;;;;;;1.80;1.70;;;;;;;;;;5069504;28;24493;-45
2022/05/23 06:33:28;;;;;;;1.88;1.70;;;;;;;;;;5067550;28;24403;-45
2022/05/23 06:35:53;;;;;;;1.90;1.80;;;;;;;;;;5069483;28;25000;-45
2022/05/23 06:38:18;;;;;;;2.20;2.00;;;;;;;;;;5069121;28;24844;-45
2022/05/23 06:40:43;;;;;;;2.28;1.92;;;;;;;;;;5068292;28;24410;-45
2022/05/23 06:43:09;;;;;;;2.20;2.00;;;;;;;;;;5068865;28;24410;-45
2022/05/23 06:45:34;;;;;;;2.60;2.40;;;;;;;;;;5069588;28;24387;-45
2022/05/23 06:47:59;;;;;;;2.90;2.20;;;;;;;;;;5066966;28;24406;-45
2022/05/23 06:50:24;;;;;;;2.00;1.90;;;;;;;;;;5069293;28;24422;-45
2022/05/23 06:52:49;;;;;;;2.20;2.00;;;;;;;;;;5067761;28;24453;-44
2022/05/23 06:55:15;;;;;;;2.60;2.40;;;;;;;;;;5068710;28;24395;-45
2022/05/23 06:57:40;;;;;;;2.33;2.13;;;;;;;;;;5069045;28;24456;-45
2022/05/23 07:00:09;;;;;;;2.80;2.30;;;;;;;;;;5068765;28;24921;-44
2022/05/23 07:02:34;;;;;;;2.45;2.25;;;;;;;;;;5073008;28;24864;-45
2022/05/23 07:13:11;;;;;;;3.03;2.20;;;;;;;;;;5088958;28;24443;-44
2022/05/23 07:15:38;;;;;;;2.20;2.10;;;;;;;;;;5086245;28;24418;-45
2022/05/23 07:18:04;;;;;;;2.67;2.00;;;;;;;;;;5078678;28;24521;-45
2022/05/23 07:20:29;;;;;;;3.23;2.10;;;;;;;;;;5089022;28;24473;-45
2022/05/23 07:22:55;;;;;;;2.20;2.00;;;;;;;;;;5089036;28;25032;-45
2022/05/23 07:25:20;;;;;;;4.57;2.60;;;;;;;;;;5088776;28;24452;-45
2022/05/23 07:27:45;;;;;;;2.92;2.20;;;;;;;;;;5070625;28;25004;-45
2022/05/23 07:30:10;;;;;;;2.67;2.47;;;;;;;;;;5067895;28;24470;-45
2022/05/23 07:32:36;;;;;;;3.22;2.33;;;;;;;;;;5076217;28;24708;-45
2022/05/23 07:35:01;;;;;;;2.53;2.33;;;;;;;;;;5088647;28;24422;-45
2022/05/23 07:37:28;;;;;;;4.72;2.63;;;;;;;;;;5085427;28;24426;-45
2022/05/23 07:39:54;;;;;;;2.78;2.30;;;;;;;;;;5070371;28;24405;-45
2022/05/23 07:42:19;;;;;;;4.30;2.70;;;;;;;;;;5083789;28;24414;-45
2022/05/23 07:44:44;;;;;;;3.20;2.40;;;;;;;;;;5088372;28;24757;-45
2022/05/23 07:47:10;;;;;;;3.10;2.40;;;;;;;;;;5087949;28;24389;-45
2022/05/23 07:49:35;;;;;;;3.23;2.40;;;;;;;;;;5088578;28;24447;-45
2022/05/23 07:52:02;;;;;;;2.33;2.20;;;;;;;;;;5075659;28;24719;-45
2022/05/23 08:02:39;;;;;;;2.30;2.10;;;;;;;;;;5066569;28;24457;-45
2022/05/23 08:05:05;;;;;;;4.10;2.30;;;;;;;;;;5067739;28;24418;-45
2022/05/23 08:07:30;;;;;;;2.40;2.20;;;;;;;;;;5067080;28;24820;-45
2022/05/23 08:10:00;;;;;;;3.57;2.10;;;;;;;;;;5067931;28;24397;-45
2022/05/23 08:12:25;;;;;;;2.30;2.10;;;;;;;;;;5066388;28;24434;-45
2022/05/23 08:14:50;;;;;;;2.75;2.30;;;;;;;;;;5067654;28;24391;-46
2022/05/23 08:17:15;;;;;;;2.20;1.92;;;;;;;;;;5067252;28;24450;-46
2022/05/23 08:19:40;;;;;;;2.20;2.00;;;;;;;;;;5067516;28;24452;-45
2022/05/23 08:22:06;;;;;;;3.20;1.93;;;;;;;;;;5067499;28;24399;-45
2022/05/23 08:24:33;;;;;;;2.53;2.10;;;;;;;;;;5067118;28;24418;-45
2022/05/23 08:26:58;;;;;;;3.10;2.50;;;;;;;;;;5067335;28;24588;-45
2022/05/23 08:29:23;;;;;;;3.00;2.10;;;;;;;;;;5067047;28;25246;-45
2022/05/23 08:31:49;;;;;;;3.22;2.00;;;;;;;;;;5067199;28;24427;-45
2022/05/23 08:34:14;;;;;;;2.00;1.80;;;;;;;;;;5065884;28;24424;-45
2022/05/23 08:36:39;;;;;;;2.30;2.03;;;;;;;;;;5067501;28;24816;-45
2022/05/23 08:39:04;;;;;;;2.58;1.90;;;;;;;;;;5066754;28;24479;-45
2022/05/23 08:41:35;;;;;;;2.10;1.90;;;;;;;;;;5067283;28;24387;-45
2022/05/23 08:44:15;;;;;;;2.20;2.00;;;;;;;;;;5065887;28;24968;-45
2022/05/23 08:46:57;;;;;;;3.30;2.00;;;;;;;;;;5067128;28;24414;-45
2022/05/23 08:49:22;;;;;;;2.42;2.22;;;;;;;;;;5067259;28;24395;-45
2022/05/23 08:52:01;;;;;;;2.20;2.00;;;;;;;;;;5067018;28;24448;-45
2022/05/23 08:54:49;;;;;;;2.03;1.92;;;;;;;;;;5067302;28;24445;-45
2022/05/23 08:57:22;;;;;;;2.17;2.00;;;;;;;;;;5058379;28;24422;-45
2022/05/23 08:59:50;;;;;;;3.80;2.10;;;;;;;;;;5067184;28;24438;-45
2022/05/23 09:02:21;;;;;;;2.88;2.17;;;;;;;;;;5066524;28;24452;-45
2022/05/23 09:04:52;;;;;;;2.20;2.00;;;;;;;;;;5067401;28;24406;-45
2022/05/23 09:07:24;;;;;;;2.30;2.20;;;;;;;;;;5086945;28;24429;-45
2022/05/23 09:09:50;;;;;;;2.35;2.15;;;;;;;;;;5087644;28;24402;-46
2022/05/23 09:12:16;;;;;;;4.10;2.10;;;;;;;;;;5088961;28;24824;-45
2022/05/23 09:14:41;;;;;;;2.42;2.20;;;;;;;;;;5091183;28;24936;-45
2022/05/23 09:17:19;;;;;;;2.50;2.30;;;;;;;;;;5072014;28;24437;-46
2022/05/23 09:19:50;;;;;;;2.30;2.10;;;;;;;;;;5071267;28;24420;-45
2022/05/23 09:22:20;;;;;;;2.45;2.25;;;;;;;;;;5071906;28;24781;-45
2022/05/23 09:24:49;;;;;;;2.60;1.90;;;;;;;;;;5071057;28;24474;-44
2022/05/23 09:27:18;;;;;;;4.90;2.67;;;;;;;;;;5070267;28;24387;-45
2022/05/23 09:29:45;;;;;;;2.60;2.40;;;;;;;;;;5072828;28;25111;-46
2022/05/23 09:32:14;;;;;;;3.00;2.40;;;;;;;;;;5090877;28;24786;-45
2022/05/23 09:34:50;;;;;;;3.47;2.30;;;;;;;;;;5090789;28;24401;-45
2022/05/23 09:37:19;;;;;;;3.58;2.30;;;;;;;;;;5072193;28;24442;-45
2022/05/23 09:39:51;;;;;;;2.10;2.00;;;;;;;;;;5069262;28;24447;-45
2022/05/23 09:48:00;;;;;;;2.40;1.90;;;;;;;;;;5090572;28;24398;-45
2022/05/23 09:50:25;;;;;;;3.50;2.15;;;;;;;;;;5087783;28;24394;-45
2022/05/23 09:52:51;;;;;;;2.20;1.88;;;;;;;;;;5070758;28;24489;-45
2022/05/23 09:55:28;;;;;;;3.37;2.10;;;;;;;;;;5069879;28;24497;-45
2022/05/23 09:57:54;;;;;;;2.00;1.90;;;;;;;;;;5070257;28;24394;-45
2022/05/23 10:00:22;;;;;;;2.63;2.20;;;;;;;;;;5069676;28;24395;-44
2022/05/23 10:02:50;;;;;;;5.03;2.13;;;;;;;;;;5070103;28;24541;-45
2022/05/23 10:05:26;;;;;;;2.50;1.92;;;;;;;;;;5069588;28;24549;-45
2022/05/23 10:07:54;;;;;;;2.10;1.90;;;;;;;;;;5070097;28;24383;-45
2022/05/23 10:10:21;;;;;;;3.83;2.70;;;;;;;;;;5069628;28;24440;-45
2022/05/23 10:12:48;;;;;;;2.78;2.40;;;;;;;;;;5069932;28;24478;-45
2022/05/23 10:15:13;;;;;;;2.50;2.30;;;;;;;;;;5072931;28;24495;-45
2022/05/23 10:17:39;;;;;;;2.90;2.40;;;;;;;;;;5089637;28;24418;-46
2022/05/23 10:20:34;;;;;;;2.53;2.33;;;;;;;;;;5090037;28;24818;-45
2022/05/23 10:22:59;;;;;;;4.07;2.50;;;;;;;;;;5075292;28;24418;-46
2022/05/23 10:25:27;;;;;;;3.17;2.57;;;;;;;;;;5089801;28;24410;-45
2022/05/23 10:27:54;;;;;;;3.78;2.60;;;;;;;;;;5069768;28;24514;-45
2022/05/23 10:30:20;;;;;;;5.35;3.20;;;;;;;;;;5069290;28;24457;-45
2022/05/23 10:32:48;;;;;;;4.13;2.70;;;;;;;;;;5069699;28;24448;-45
2022/05/23 10:35:32;;;;;;;2.90;2.00;;;;;;;;;;5069330;28;24418;-45
2022/05/23 10:43:27;;;;;;;2.85;2.60;;;;;;;;;;5089598;28;24420;-45
2022/05/23 10:45:56;;;;;;;2.90;2.53;;;;;;;;;;5089786;28;24387;-46
2022/05/23 10:48:44;;;;;;;2.50;2.30;;;;;;;;;;5089038;28;24410;-45
2022/05/23 10:51:09;;;;;;;3.60;2.20;;;;;;;;;;5068708;28;24972;-44
2022/05/23 10:53:43;;;;;;;3.43;2.60;;;;;;;;;;5069489;28;24484;-44
2022/05/23 10:56:18;;;;;;;3.13;2.50;;;;;;;;;;5069279;28;24784;-44
2022/05/23 10:58:46;;;;;;;3.20;2.53;;;;;;;;;;5068720;28;24511;-44
2022/05/23 11:01:30;;;;;;;3.10;2.60;;;;;;;;;;5068812;28;24403;-43
2022/05/23 11:04:04;;;;;;;3.50;2.40;;;;;;;;;;5086393;28;24414;-44
2022/05/23 11:06:32;;;;;;;3.03;2.63;;;;;;;;;;5089360;28;24398;-46
2022/05/23 11:09:07;;;;;;;4.20;2.67;;;;;;;;;;5088809;28;24378;-46
2022/05/23 11:11:32;;;;;;;3.95;2.72;;;;;;;;;;5088443;28;24987;-46
2022/05/23 11:14:03;;;;;;;3.00;2.63;;;;;;;;;;5074639;28;24996;-44
2022/05/23 11:16:40;;;;;;;2.90;2.50;;;;;;;;;;5068765;28;24397;-44
2022/05/23 11:19:28;;;;;;;4.47;2.78;;;;;;;;;;5068456;28;24497;-44
2022/05/23 11:22:05;;;;;;;3.28;2.90;;;;;;;;;;5060204;28;24418;-44
2022/05/23 11:24:44;;;;;;;3.55;2.80;;;;;;;;;;5068171;28;24418;-43
2022/05/23 11:35:43;;;;;;;3.03;2.50;;;;;;;;;;5069781;28;24989;-44
2022/05/23 11:38:09;;;;;;;3.45;2.80;;;;;;;;;;5082499;28;24980;-45
2022/05/23 11:40:37;;;;;;;3.70;2.83;;;;;;;;;;5088563;28;24407;-44
2022/05/23 11:43:07;;;;;;;3.90;3.17;;;;;;;;;;5087433;28;21322;-44
2022/05/23 11:48:41;;;;;;;5.35;3.10;;;;;;;;;;5071891;28;24576;-44
2022/05/23 11:51:12;;;;;;;2.72;2.53;;;;;;;;;;5067831;28;24391;-44
2022/05/23 11:53:40;;;;;;;3.23;2.60;;;;;;;;;;5067799;28;24428;-45
2022/05/23 11:56:08;;;;;;;4.00;2.90;;;;;;;;;;5067873;28;25026;-44
2022/05/23 11:58:40;;;;;;;3.10;2.70;;;;;;;;;;5074325;28;24809;-44
2022/05/23 12:01:12;;;;;;;3.28;3.08;;;;;;;;;;5088110;28;24417;-45
2022/05/23 12:03:55;;;;;;;3.97;2.50;;;;;;;;;;5087833;28;24389;-45
2022/05/23 12:06:24;;;;;;;3.60;3.03;;;;;;;;;;5088276;28;24409;-45
2022/05/23 12:09:22;;;;;;;4.93;3.17;;;;;;;;;;5087872;28;24391;-44
2022/05/23 12:11:51;;;;;;;6.15;3.00;;;;;;;;;;5076729;28;24498;-45
2022/05/23 12:14:16;;;;;;;3.10;2.80;;;;;;;;;;5087448;28;24998;-44
2022/05/23 12:16:44;;;;;;;4.78;3.05;;;;;;;;;;5087770;28;24394;-44
2022/05/23 12:19:21;;;;;;;4.10;2.90;;;;;;;;;;5087707;28;24410;-44
2022/05/23 12:21:47;;;;;;;3.00;2.80;;;;;;;;;;5087680;28;24823;-44
2022/05/23 12:24:27;;;;;;;3.28;2.88;;;;;;;;;;5085783;28;24418;-45
2022/05/23 12:26:53;;;;;;;3.30;2.65;;;;;;;;;;5087469;28;24378;-45
2022/05/23 12:29:21;;;;;;;4.20;2.80;;;;;;;;;;5087377;28;24959;-45
2022/05/23 12:32:07;;;;;;;3.88;3.00;;;;;;;;;;5085184;28;24952;-45
2022/05/23 12:34:34;;;;;;;4.25;2.83;;;;;;;;;;5066953;28;24960;-44
2022/05/23 12:37:00;;;;;;;3.10;2.70;;;;;;;;;;5066567;28;25032;-44
2022/05/23 12:39:35;;;;;;;2.80;2.60;;;;;;;;;;5066905;28;24437;-45
2022/05/23 12:42:09;;;;;;;3.08;2.78;;;;;;;;;;5059915;28;24484;-45
2022/05/23 12:44:34;;;;;;;4.47;2.72;;;;;;;;;;5066898;28;24503;-45
2022/05/23 12:47:24;;;;;;;3.22;3.03;;;;;;;;;;5066575;28;24498;-45
2022/05/23 12:50:01;;;;;;;3.75;3.00;;;;;;;;;;5073994;28;24422;-45
2022/05/23 12:52:51;;;;;;;3.28;2.50;;;;;;;;;;5063280;28;24422;-45
2022/05/23 12:55:35;;;;;;;3.20;2.90;;;;;;;;;;5061299;28;24453;-45
2022/05/23 12:58:06;;;;;;;3.08;2.85;;;;;;;;;;5064308;28;25142;-46
2022/05/23 13:00:36;;;;;;;3.33;3.03;;;;;;;;;;5050576;28;24491;-45
2022/05/23 13:03:11;;;;;;;3.30;3.00;;;;;;;;;;5067092;28;24387;-44
2022/05/23 13:05:41;;;;;;;3.72;3.42;;;;;;;;;;5064727;28;24423;-45
2022/05/23 13:08:22;;;;;;;4.10;3.70;;;;;;;;;;5069027;28;24808;-45
2022/05/23 13:10:50;;;;;;;3.30;3.10;;;;;;;;;;5078192;28;24402;-44
2022/05/23 13:13:29;;;;;;;3.50;3.20;;;;;;;;;;5086625;28;24477;-46
2022/05/23 13:15:54;;;;;;;3.60;3.30;;;;;;;;;;5086919;28;24410;-46
2022/05/23 13:23:48;;;;;;;3.78;3.10;;;;;;;;;;5061524;28;24444;-45
2022/05/23 13:26:13;;;;;;;5.25;3.08;;;;;;;;;;5073952;28;24406;-45
2022/05/23 13:28:41;;;;;;;3.60;3.30;;;;;;;;;;5066244;28;24418;-45
2022/05/23 13:31:20;;;;;;;4.20;3.42;;;;;;;;;;5069192;28;24542;-46
2022/05/23 13:33:46;;;;;;;3.30;3.00;;;;;;;;;;5066640;28;24823;-46
2022/05/23 13:36:11;;;;;;;3.97;3.40;;;;;;;;;;5066636;28;24429;-46
2022/05/23 13:38:38;;;;;;;3.40;3.10;;;;;;;;;;5065962;28;24406;-46
2022/05/23 13:41:04;;;;;;;2.90;2.70;;;;;;;;;;5084369;28;24433;-45
2022/05/23 13:43:49;;;;;;;3.78;3.20;;;;;;;;;;5083467;28;25015;-45
2022/05/23 13:46:14;;;;;;;3.83;3.40;;;;;;;;;;5076115;28;24476;-46
2022/05/23 13:48:44;;;;;;;3.10;2.80;;;;;;;;;;5081069;28;26191;-47
2022/05/23 13:51:12;;;;;;;4.60;3.42;;;;;;;;;;5075901;28;24421;-46
2022/05/23 13:53:40;;;;;;;4.15;3.20;;;;;;;;;;5074307;28;24443;-46
2022/05/23 13:56:05;;;;;;;3.58;3.05;;;;;;;;;;5076407;28;24502;-46
2022/05/23 13:58:32;;;;;;;3.90;3.10;;;;;;;;;;5067549;28;24514;-46
2022/05/23 14:01:04;;;;;;;3.70;3.10;;;;;;;;;;5068914;28;24395;-45
2022/05/23 14:03:40;;;;;;;3.90;3.60;;;;;;;;;;5069959;28;24401;-46
2022/05/23 14:06:06;;;;;;;3.33;3.03;;;;;;;;;;5069688;28;24391;-45
2022/05/23 14:08:34;;;;;;;3.60;3.30;;;;;;;;;;5068985;28;24483;-46
2022/05/23 14:11:20;;;;;;;3.90;3.60;;;;;;;;;;5069820;28;24460;-46
2022/05/23 14:13:46;;;;;;;4.40;3.30;;;;;;;;;;5076923;28;25600;-46
2022/05/23 14:16:14;;;;;;;3.50;3.20;;;;;;;;;;5072269;28;24945;-46
2022/05/23 14:18:39;;;;;;;3.45;3.15;;;;;;;;;;5068738;28;24502;-45
2022/05/23 14:21:04;;;;;;;3.72;3.42;;;;;;;;;;5069200;28;24414;-45
2022/05/23 14:23:33;;;;;;;4.20;3.30;;;;;;;;;;5068569;28;24427;-46
2022/05/23 14:25:58;;;;;;;3.22;3.03;;;;;;;;;;5068967;28;24422;-44
2022/05/23 14:28:23;;;;;;;4.50;3.20;;;;;;;;;;5069202;28;24402;-46
2022/05/23 14:30:52;;;;;;;3.22;2.92;;;;;;;;;;5068810;28;24488;-45
2022/05/23 14:33:25;;;;;;;3.97;3.50;;;;;;;;;;5067128;28;24427;-45
2022/05/23 14:35:53;;;;;;;3.90;3.03;;;;;;;;;;5069469;28;24454;-45
2022/05/23 14:38:22;;;;;;;5.63;3.67;;;;;;;;;;5068972;28;24407;-46
2022/05/23 14:40:47;;;;;;;3.42;3.15;;;;;;;;;;5066764;28;24402;-45
2022/05/23 14:43:13;;;;;;;4.87;3.60;;;;;;;;;;5068819;28;24782;-46
2022/05/23 14:46:07;;;;;;;4.95;3.42;;;;;;;;;;5068153;28;24410;-45
2022/05/23 14:48:33;;;;;;;3.63;3.33;;;;;;;;;;5055079;28;24480;-45
2022/05/23 14:51:04;;;;;;;3.90;3.60;;;;;;;;;;5069120;28;24845;-45
2022/05/23 14:56:35;;;;;;;3.90;3.60;;;;;;;;;;5045690;28;24430;-46
2022/05/23 15:01:45;;;;;;;3.50;3.20;;;;;;;;;;5049391;28;24386;-46
2022/05/23 15:04:14;;;;;;;5.00;3.15;;;;;;;;;;5048738;28;24383;-46
2022/05/23 15:06:39;;;;;;;3.70;3.40;;;;;;;;;;5065424;28;24434;-45
2022/05/23 15:09:04;;;;;;;4.00;3.43;;;;;;;;;;5088102;28;24386;-46
2022/05/23 15:11:33;;;;;;;3.35;3.05;;;;;;;;;;5088399;28;24489;-46
2022/05/23 15:13:59;;;;;;;3.70;3.30;;;;;;;;;;5088578;28;24395;-45
2022/05/23 15:16:29;;;;;;;3.00;2.80;;;;;;;;;;5075635;28;24419;-46
2022/05/23 15:18:55;;;;;;;3.50;3.20;;;;;;;;;;5068313;28;24471;-46
2022/05/23 15:21:20;;;;;;;3.30;3.00;;;;;;;;;;5067766;28;24645;-45
2022/05/23 15:23:46;;;;;;;3.07;2.80;;;;;;;;;;5070877;28;24972;-46
2022/05/23 15:26:13;;;;;;;3.80;3.50;;;;;;;;;;5059127;28;24450;-46
2022/05/23 15:28:38;;;;;;;4.90;3.67;;;;;;;;;;5067691;28;24430;-46
2022/05/23 15:31:05;;;;;;;3.30;3.00;;;;;;;;;;5072239;28;24483;-46
2022/05/23 15:33:31;;;;;;;3.70;3.40;;;;;;;;;;5059436;28;24414;-46
2022/05/23 15:35:56;;;;;;;3.40;3.10;;;;;;;;;;5074921;28;24518;-46
2022/05/23 15:38:21;;;;;;;3.20;3.00;;;;;;;;;;5068267;28;24426;-45
2022/05/23 15:40:46;;;;;;;3.37;3.17;;;;;;;;;;5071488;28;24422;-45
2022/05/23 15:43:12;;;;;;;3.33;3.00;;;;;;;;;;5066152;28;24426;-46
2022/05/23 15:45:41;;;;;;;3.67;3.38;;;;;;;;;;5076979;28;24410;-45
2022/05/23 15:48:07;;;;;;;3.60;3.22;;;;;;;;;;5069821;28;24528;-45
2022/05/23 15:50:32;;;;;;;3.50;3.20;;;;;;;;;;5072033;28;24964;-45
2022/05/23 15:52:58;;;;;;;3.33;3.13;;;;;;;;;;5068067;28;24980;-45
2022/05/23 15:55:23;;;;;;;5.13;3.40;;;;;;;;;;5077786;28;24421;-44
2022/05/23 15:57:52;;;;;;;4.07;3.60;;;;;;;;;;5078689;28;24560;-44
2022/05/23 16:00:23;;;;;;;5.30;3.70;;;;;;;;;;5063577;28;24429;-44
2022/05/23 16:02:51;;;;;;;4.45;3.60;;;;;;;;;;5064323;28;24479;-44